Marquette, Michigan
Current Conditions -  °F | °C
As of 3:17 AM on Sunday 23 Nov 2014 (Local Time) from KSAW Reporting Station
Moderate Fog Moderate Fog  
Wind Chill: 25°   Ceiling: 200
Heat Index: 34°   Visibility: 0.5mi
Dew Point: 33°   Wind: 12mph
Humidity: 96%   Direction: 180°S
Pressure: 29.66"   Gusts: NA
Location:  46.55°N, 87.41°W
Report Text: KSAW 230817Z AUTO 18010KT 1/2SM FG OVC002 01/01 A2966 RMK AO2 T00100005
Loading
Personal Weather Stations






























Interactive Weather Map New forecast layout! Learn more

10-Day Weather Forecast

Advertisements
Track Severe Weather on mobile